Time;durP1;ratioP1;P1;durP2;ratioP2;P2;SDS_P1;SDS_P2;PMS_P1;PMS_P2;Temp;Humidity;BMP_temperature;BMP_pressure;BME280_temperature;BME280_humidity;BME280_pressure;Samples;Min_cycle;Max_cycle;Signal;HPM_P1;HPM_P2
2022/01/26 00:06:23;;;;;;;22.55;7.45;;;1.30;97.30;;;;;;10123978;28;20048;-65
2022/01/26 00:11:14;;;;;;;20.40;9.48;;;1.30;97.50;;;;;;10117398;28;20020;-62
2022/01/26 00:16:09;;;;;;;19.02;7.57;;;1.30;97.20;;;;;;10127473;28;20025;-64
2022/01/26 00:21:09;;;;;;;12.40;4.43;;;1.30;97.40;;;;;;10122751;28;20550;-61
2022/01/26 00:26:08;;;;;;;16.73;7.20;;;1.20;97.60;;;;;;10125453;28;20537;-65
2022/01/26 00:41:11;;;;;;;17.60;6.68;;;1.10;97.60;;;;;;10124045;28;20052;-61
2022/01/26 00:46:05;;;;;;;16.10;6.47;;;1.10;97.50;;;;;;10125431;28;20024;-64
2022/01/26 00:50:59;;;;;;;17.60;6.40;;;1.10;97.60;;;;;;10128298;28;20111;-62
2022/01/26 00:55:50;;;;;;;15.77;6.78;;;1.10;97.50;;;;;;10112473;28;20048;-60
2022/01/26 01:00:41;;;;;;;19.88;7.85;;;1.10;97.50;;;;;;10126657;28;20095;-61
2022/01/26 01:05:41;;;;;;;22.83;9.02;;;1.00;97.30;;;;;;10115368;28;20040;-62
2022/01/26 01:10:32;;;;;;;17.35;7.50;;;0.90;97.20;;;;;;10125311;28;20040;-63
2022/01/26 01:15:24;;;;;;;22.88;8.38;;;0.90;97.30;;;;;;10114918;28;20067;-61
2022/01/26 01:21:15;;;;;;;18.38;7.32;;;0.90;97.30;;;;;;10125376;28;20089;-62
2022/01/26 01:30:43;;;;;;;19.23;7.85;;;1.00;97.30;;;;;;10120944;28;20035;-61
2022/01/26 01:35:38;;;;;;;20.57;7.27;;;1.20;97.20;;;;;;10126080;28;20433;-60
2022/01/26 01:40:29;;;;;;;21.65;7.53;;;1.20;97.00;;;;;;10113420;28;20120;-60
2022/01/26 01:45:33;;;;;;;14.57;5.88;;;1.10;97.10;;;;;;10127493;28;20464;-61
2022/01/26 01:50:24;;;;;;;16.67;7.10;;;1.10;97.40;;;;;;10116505;28;20079;-63
2022/01/26 01:55:16;;;;;;;13.40;6.05;;;1.10;97.30;;;;;;10116227;28;20453;-63
2022/01/26 02:00:08;;;;;;;15.43;5.68;;;1.10;97.40;;;;;;10119538;28;20546;-62
2022/01/26 02:04:59;;;;;;;13.82;5.97;;;0.90;97.40;;;;;;10123076;28;20043;-63
2022/01/26 02:09:49;;;;;;;12.23;5.38;;;1.10;97.30;;;;;;10124688;28;20032;-62
2022/01/26 02:14:45;;;;;;;19.13;6.25;;;1.20;97.20;;;;;;10120419;28;20028;-61
2022/01/26 02:20:07;;;;;;;14.48;5.80;;;1.10;97.30;;;;;;10112193;28;20362;-62
2022/01/26 02:51:19;;;;;;;11.57;5.50;;;1.40;97.10;;;;;;10128341;28;20039;-66
2022/01/26 03:06:13;;;;;;;20.88;7.07;;;1.30;97.40;;;;;;10130217;28;20604;-63
2022/01/26 03:11:12;;;;;;;20.73;6.97;;;1.20;97.20;;;;;;10132341;28;20355;-62
2022/01/26 03:16:11;;;;;;;19.95;7.35;;;1.00;97.20;;;;;;10134055;28;20077;-60
2022/01/26 03:21:05;;;;;;;19.23;7.95;;;1.10;97.80;;;;;;10127109;28;20048;-61
2022/01/26 03:36:14;;;;;;;16.00;6.65;;;1.50;97.20;;;;;;10130869;28;20039;-63
2022/01/26 03:46:08;;;;;;;24.98;6.97;;;1.60;97.20;;;;;;10126170;28;20491;-62
2022/01/26 03:51:00;;;;;;;17.42;7.93;;;1.70;97.20;;;;;;10131997;28;20032;-63
2022/01/26 03:55:51;;;;;;;20.13;8.18;;;1.50;97.30;;;;;;10121513;28;20025;-62
2022/01/26 04:00:41;;;;;;;18.45;7.85;;;1.60;97.40;;;;;;10132206;28;20036;-68
2022/01/26 04:05:32;;;;;;;18.90;8.63;;;1.70;97.20;;;;;;10125070;28;20032;-68
2022/01/26 04:15:35;;;;;;;16.40;7.40;;;1.40;97.40;;;;;;10118058;28;20431;-61
2022/01/26 04:20:29;;;;;;;18.80;6.50;;;1.40;97.60;;;;;;10129878;28;20028;-67
2022/01/26 04:25:23;;;;;;;28.67;10.05;;;1.20;97.60;;;;;;10127122;28;20082;-66
2022/01/26 04:30:14;;;;;;;25.92;8.95;;;1.40;97.50;;;;;;10124349;28;20105;-64
2022/01/26 04:35:06;;;;;;;30.30;11.15;;;1.30;97.30;;;;;;10117553;28;20028;-64
2022/01/26 04:40:05;;;;;;;21.35;7.80;;;1.20;97.30;;;;;;10127280;28;20522;-60
2022/01/26 04:45:02;;;;;;;21.90;9.05;;;1.20;97.50;;;;;;10123328;28;20499;-64
2022/01/26 04:49:53;;;;;;;17.55;6.80;;;1.10;97.30;;;;;;10129642;28;20065;-61
2022/01/26 04:54:44;;;;;;;23.25;8.05;;;1.10;97.50;;;;;;10128357;28;20032;-62
2022/01/26 04:59:34;;;;;;;23.45;7.93;;;1.20;97.40;;;;;;10125017;28;20114;-63
2022/01/26 05:04:25;;;;;;;18.67;8.68;;;1.30;97.20;;;;;;10120749;28;20036;-65
2022/01/26 05:09:18;;;;;;;17.33;7.07;;;1.20;97.10;;;;;;10104556;28;20043;-63
2022/01/26 05:14:09;;;;;;;19.45;6.55;;;1.30;97.30;;;;;;10127194;28;20035;-64
2022/01/26 05:19:00;;;;;;;24.35;9.43;;;1.30;97.30;;;;;;10115943;28;20025;-69
2022/01/26 05:23:51;;;;;;;21.48;8.43;;;1.20;97.20;;;;;;10125968;28;20319;-63
2022/01/26 05:28:42;;;;;;;15.57;5.53;;;1.10;97.30;;;;;;10116221;28;20295;-62
2022/01/26 05:33:34;;;;;;;16.92;6.93;;;1.10;97.40;;;;;;10127742;28;20032;-61
2022/01/26 05:38:25;;;;;;;14.63;6.82;;;1.20;97.50;;;;;;10123376;28;20028;-61
2022/01/26 05:43:15;;;;;;;14.20;5.22;;;1.30;97.30;;;;;;10118425;28;20099;-61
2022/01/26 05:48:10;;;;;;;15.48;6.80;;;1.00;97.30;;;;;;10125434;28;20028;-61
2022/01/26 05:53:01;;;;;;;18.77;7.00;;;1.00;97.30;;;;;;10126603;28;20020;-67
2022/01/26 05:57:52;;;;;;;18.25;6.10;;;1.00;97.20;;;;;;10116908;28;20785;-61
2022/01/26 06:02:43;;;;;;;16.55;6.50;;;1.10;97.40;;;;;;10122343;28;20528;-61
2022/01/26 06:07:34;;;;;;;17.23;5.80;;;1.10;97.20;;;;;;10111740;28;20047;-60
2022/01/26 06:12:25;;;;;;;13.43;6.82;;;1.10;97.20;;;;;;10123219;28;20510;-61
2022/01/26 06:17:15;;;;;;;21.17;8.30;;;1.10;97.20;;;;;;10117196;28;20032;-61
2022/01/26 06:22:06;;;;;;;16.20;6.57;;;1.10;97.10;;;;;;10124386;28;20054;-68
2022/01/26 06:26:57;;;;;;;12.25;6.28;;;1.10;97.10;;;;;;10129589;28;20055;-63
2022/01/26 06:31:48;;;;;;;15.55;6.82;;;1.10;97.00;;;;;;10126665;28;20070;-62
2022/01/26 06:36:43;;;;;;;18.65;7.70;;;1.20;97.00;;;;;;10121049;28;20020;-71
2022/01/26 06:41:33;;;;;;;19.73;7.43;;;1.10;97.10;;;;;;10124538;28;20498;-65
2022/01/26 06:46:38;;;;;;;19.65;7.65;;;1.20;96.90;;;;;;10125851;28;20048;-65
2022/01/26 06:51:28;;;;;;;26.80;9.23;;;1.20;96.90;;;;;;10122884;28;20070;-70
2022/01/26 06:56:19;;;;;;;24.20;8.00;;;1.20;96.70;;;;;;10122340;28;20498;-62
2022/01/26 07:01:10;;;;;;;17.55;7.75;;;1.20;97.00;;;;;;10136379;28;20089;-61
2022/01/26 07:06:01;;;;;;;18.30;7.50;;;1.30;96.80;;;;;;10133538;28;20029;-66
2022/01/26 07:10:53;;;;;;;20.48;7.85;;;1.20;96.80;;;;;;10136130;28;20097;-64
2022/01/26 07:25:58;;;;;;;22.60;9.00;;;1.20;96.90;;;;;;10134181;28;20028;-62
2022/01/26 07:30:50;;;;;;;16.08;6.70;;;1.20;96.90;;;;;;10126348;28;20028;-62
2022/01/26 07:35:41;;;;;;;22.23;7.40;;;1.30;96.90;;;;;;10131704;28;20116;-64
2022/01/26 07:40:32;;;;;;;19.35;6.78;;;1.50;96.90;;;;;;10151195;28;20099;-64
2022/01/26 07:45:23;;;;;;;18.20;7.43;;;1.50;96.70;;;;;;10138778;28;20126;-66
2022/01/26 07:50:15;;;;;;;17.70;6.88;;;1.50;96.70;;;;;;10148187;28;20541;-71
2022/01/26 07:55:09;;;;;;;23.70;8.70;;;1.50;96.80;;;;;;10127140;28;20285;-67
2022/01/26 08:00:00;;;;;;;17.25;7.53;;;1.50;96.80;;;;;;10144545;28;20070;-73
2022/01/26 08:04:50;;;;;;;14.48;7.18;;;1.40;96.70;;;;;;10154769;28;20101;-73
2022/01/26 08:09:43;;;;;;;10.43;5.28;;;1.60;96.80;;;;;;10137343;28;20025;-64
2022/01/26 08:14:34;;;;;;;18.88;6.63;;;1.60;96.60;;;;;;10144648;28;20036;-65
2022/01/26 08:19:25;;;;;;;14.73;6.00;;;1.50;96.90;;;;;;10135358;28;20419;-68
2022/01/26 08:24:16;;;;;;;15.52;6.35;;;1.60;96.90;;;;;;10146748;28;20067;-67
2022/01/26 08:29:14;;;;;;;15.43;6.47;;;1.60;96.90;;;;;;10143735;28;20584;-67
2022/01/26 08:34:05;;;;;;;16.90;7.30;;;1.70;96.90;;;;;;10124235;28;20039;-63
2022/01/26 08:38:55;;;;;;;16.52;7.82;;;1.70;96.70;;;;;;10134284;28;20034;-63
2022/01/26 08:43:48;;;;;;;21.73;7.53;;;1.70;96.80;;;;;;10132777;28;20041;-64
2022/01/26 08:48:38;;;;;;;16.02;6.18;;;1.80;96.70;;;;;;10133609;28;20025;-71
2022/01/26 08:53:29;;;;;;;18.20;6.80;;;1.90;96.70;;;;;;10131954;28;20155;-66
2022/01/26 08:58:20;;;;;;;15.73;6.55;;;2.00;96.70;;;;;;10148572;28;20039;-67
2022/01/26 09:03:11;;;;;;;17.88;7.57;;;1.90;96.80;;;;;;10169864;28;20086;-70
2022/01/26 09:08:03;;;;;;;14.73;5.78;;;2.00;96.70;;;;;;10169748;28;20032;-67
2022/01/26 09:12:54;;;;;;;21.55;8.13;;;2.00;96.60;;;;;;10168416;28;20450;-65
2022/01/26 09:17:45;;;;;;;16.35;6.65;;;1.90;96.60;;;;;;10171258;28;20174;-69
2022/01/26 09:22:36;;;;;;;15.90;8.27;;;1.80;96.70;;;;;;10165963;28;20701;-66
2022/01/26 09:27:27;;;;;;;19.77;9.82;;;1.80;96.60;;;;;;10172879;28;20028;-72
2022/01/26 09:32:18;;;;;;;19.45;6.38;;;1.70;96.50;;;;;;10180283;28;20577;-69
2022/01/26 09:37:16;;;;;;;25.20;8.65;;;1.80;96.70;;;;;;10169984;28;20024;-70
2022/01/26 09:42:08;;;;;;;21.38;9.07;;;1.80;96.50;;;;;;10170228;28;20546;-64
2022/01/26 09:46:59;;;;;;;18.20;8.02;;;1.80;96.50;;;;;;10166901;28;20094;-68
2022/01/26 09:51:50;;;;;;;23.58;8.43;;;1.80;96.60;;;;;;10167990;28;20181;-66
2022/01/26 09:56:44;;;;;;;25.73;9.38;;;1.70;96.60;;;;;;10167418;28;20039;-69
2022/01/26 10:01:46;;;;;;;23.05;8.05;;;1.70;96.60;;;;;;10128228;28;20051;-64
2022/01/26 10:06:40;;;;;;;23.48;9.27;;;1.90;96.50;;;;;;10131956;28;20020;-70
2022/01/26 10:21:52;;;;;;;24.98;8.23;;;1.90;96.50;;;;;;10129669;28;20511;-61
2022/01/26 10:26:50;;;;;;;19.90;7.90;;;1.80;96.50;;;;;;10128375;28;20056;-64
2022/01/26 10:31:41;;;;;;;17.20;8.40;;;1.80;96.40;;;;;;10127951;28;20396;-61
2022/01/26 10:36:41;;;;;;;18.52;7.18;;;1.80;96.50;;;;;;10136422;28;20056;-68
2022/01/26 10:41:31;;;;;;;20.17;8.60;;;1.80;96.40;;;;;;10137912;28;20120;-65
2022/01/26 10:46:37;;;;;;;26.65;9.02;;;1.90;96.50;;;;;;10140391;28;20131;-69
2022/01/26 10:56:24;;;;;;;24.05;9.13;;;1.90;96.30;;;;;;10138246;28;20836;-71
2022/01/26 11:01:15;;;;;;;20.13;7.97;;;2.00;96.40;;;;;;10139988;28;20135;-70
2022/01/26 11:06:07;;;;;;;23.17;7.70;;;1.90;96.40;;;;;;10134166;28;20021;-70
2022/01/26 11:10:57;;;;;;;21.58;8.02;;;2.00;96.50;;;;;;10132739;28;20068;-61
2022/01/26 11:15:48;;;;;;;22.52;9.35;;;2.00;96.40;;;;;;10136064;28;20514;-63
2022/01/26 11:20:51;;;;;;;27.08;10.50;;;2.10;96.20;;;;;;10131193;28;20026;-65
2022/01/26 11:25:48;;;;;;;21.45;8.00;;;1.90;96.40;;;;;;10141168;28;20066;-67
2022/01/26 11:30:39;;;;;;;15.60;6.90;;;1.90;96.40;;;;;;10135510;28;20039;-76
2022/01/26 11:35:35;;;;;;;22.25;9.18;;;2.00;96.40;;;;;;10131094;28;20491;-71
2022/01/26 11:45:46;;;;;;;23.42;8.35;;;1.90;96.30;;;;;;10127444;28;20094;-71
2022/01/26 11:50:42;;;;;;;28.40;10.95;;;1.90;96.30;;;;;;10131350;28;20512;-60
2022/01/26 11:55:52;;;;;;;28.15;7.47;;;2.00;96.40;;;;;;10128692;28;20116;-61
2022/01/26 12:05:58;;;;;;;21.73;8.40;;;2.10;96.30;;;;;;10132103;28;20406;-72
2022/01/26 12:10:49;;;;;;;26.58;9.90;;;1.90;96.30;;;;;;10133209;28;20449;-65
2022/01/26 12:15:48;;;;;;;23.95;8.23;;;1.90;96.30;;;;;;10131163;28;20029;-67
2022/01/26 12:35:55;;;;;;;23.85;9.55;;;1.90;96.40;;;;;;10147078;28;20043;-63
2022/01/26 12:45:58;;;;;;;21.08;9.20;;;1.80;96.30;;;;;;10145894;28;20174;-61
2022/01/26 12:50:49;;;;;;;22.60;8.60;;;1.90;96.40;;;;;;10140101;28;20175;-67
2022/01/26 12:55:40;;;;;;;20.77;8.32;;;1.80;96.30;;;;;;10135592;28;20199;-62
2022/01/26 13:00:40;;;;;;;25.55;8.30;;;1.70;96.40;;;;;;10146172;28;20128;-61
2022/01/26 13:05:31;;;;;;;32.78;9.35;;;2.00;96.40;;;;;;10144723;28;20036;-64
2022/01/26 13:10:22;;;;;;;20.80;9.05;;;1.80;96.10;;;;;;10149529;28;20032;-65
2022/01/26 13:15:23;;;;;;;23.90;9.32;;;1.90;96.20;;;;;;10127391;28;20029;-60
2022/01/26 14:00:08;;;;;;;21.90;7.97;;;1.90;96.50;;;;;;10128285;28;20570;-61
2022/01/26 14:04:59;;;;;;;19.25;8.05;;;2.10;96.20;;;;;;10099834;28;20102;-64
2022/01/26 14:09:49;;;;;;;19.45;7.13;;;2.10;96.10;;;;;;10131123;28;20248;-72
2022/01/26 14:14:44;;;;;;;20.00;6.97;;;2.10;96.20;;;;;;10137321;28;20031;-74
2022/01/26 14:19:55;;;;;;;19.77;6.45;;;2.00;96.10;;;;;;10138393;28;20127;-67
2022/01/26 14:30:15;;;;;;;16.42;5.90;;;2.10;96.10;;;;;;10136955;28;20425;-68
2022/01/26 15:00:26;;;;;;;20.35;7.82;;;2.00;96.00;;;;;;10145177;28;20506;-63
2022/01/26 15:32:58;;;;;;;12.52;5.57;;;1.50;96.20;;;;;;10132374;28;20055;-68
2022/01/26 15:41:44;;;;;;;13.52;5.38;;;1.50;96.20;;;;;;10139996;28;20036;-62
2022/01/26 15:51:53;;;;;;;12.05;5.95;;;1.40;95.90;;;;;;10128396;28;19927;-61
2022/01/26 16:07:20;;;;;;;17.60;6.28;;;1.30;96.20;;;;;;10123091;28;20586;-62
2022/01/26 16:19:31;;;;;;;23.85;6.47;;;1.30;96.00;;;;;;10131048;28;20023;-61
2022/01/26 16:35:08;;;;;;;18.60;6.20;;;1.30;96.00;;;;;;10074079;28;20059;-62
2022/01/26 17:25:14;;;;;;;14.25;5.45;;;1.60;96.00;;;;;;10127719;28;20125;-64
2022/01/26 18:16:26;;;;;;;21.42;5.70;;;1.60;95.90;;;;;;10150556;28;20030;-63
2022/01/26 18:51:35;;;;;;;20.77;6.68;;;2.00;95.50;;;;;;10160342;28;20059;-67
2022/01/26 18:56:27;;;;;;;21.52;7.10;;;1.80;95.80;;;;;;10167905;28;20435;-63
2022/01/26 19:01:18;;;;;;;14.95;6.28;;;1.80;96.00;;;;;;10160105;28;20184;-63
2022/01/26 19:06:09;;;;;;;21.02;7.80;;;1.80;95.80;;;;;;10161116;28;20029;-64
2022/01/26 19:11:00;;;;;;;19.25;8.10;;;1.90;95.80;;;;;;10175701;28;20025;-64
2022/01/26 19:15:53;;;;;;;13.80;6.03;;;2.00;95.80;;;;;;10166871;28;20044;-64
2022/01/26 19:21:08;;;;;;;16.00;6.95;;;1.90;95.90;;;;;;10165493;28;20516;-65
2022/01/26 19:26:05;;;;;;;16.52;6.85;;;1.90;95.90;;;;;;10172845;28;20032;-64
2022/01/26 19:42:24;;;;;;;16.30;6.53;;;1.80;95.80;;;;;;10158966;28;20271;-63
2022/01/26 19:52:14;;;;;;;25.17;7.70;;;1.80;95.80;;;;;;10168967;28;20051;-64
2022/01/26 19:56:57;;;;;;;26.85;8.18;;;1.80;95.90;;;;;;10175713;28;20043;-68
2022/01/26 20:01:47;;;;;;;17.80;7.63;;;1.70;95.80;;;;;;10134036;28;20032;-60
2022/01/26 20:06:39;;;;;;;22.13;7.97;;;1.70;95.90;;;;;;10112476;28;20032;-65
2022/01/26 20:11:40;;;;;;;31.20;10.85;;;1.90;95.80;;;;;;10127409;28;20024;-64
2022/01/26 20:16:32;;;;;;;23.00;7.97;;;1.90;96.10;;;;;;10105129;28;20142;-64
2022/01/26 20:21:23;;;;;;;17.05;6.53;;;2.00;95.70;;;;;;10131301;28;20082;-55
2022/01/26 20:26:14;;;;;;;22.10;7.60;;;1.80;95.80;;;;;;10129698;28;20027;-61
2022/01/26 20:31:15;;;;;;;13.18;5.43;;;1.60;95.90;;;;;;10125104;28;20033;-65
2022/01/26 20:36:06;;;;;;;18.25;6.30;;;1.60;96.00;;;;;;10105492;28;20025;-61
2022/01/26 20:40:58;;;;;;;14.93;6.30;;;1.70;96.00;;;;;;10130577;28;20105;-61
2022/01/26 20:45:48;;;;;;;17.75;7.75;;;1.60;95.90;;;;;;10132101;28;20032;-62
2022/01/26 20:50:39;;;;;;;12.75;5.53;;;1.50;95.80;;;;;;10134864;28;20074;-66
2022/01/26 20:55:30;;;;;;;13.05;5.10;;;1.50;96.00;;;;;;10123023;28;20021;-62
2022/01/26 21:00:21;;;;;;;17.75;5.85;;;1.60;96.00;;;;;;10121240;28;20045;-60
2022/01/26 21:05:12;;;;;;;13.55;5.30;;;1.60;96.00;;;;;;10126551;28;20048;-61
2022/01/26 21:10:03;;;;;;;15.15;6.18;;;1.50;96.10;;;;;;10115605;28;20021;-61
2022/01/26 21:14:54;;;;;;;12.13;5.28;;;1.50;96.20;;;;;;10129402;28;20032;-65
2022/01/26 21:19:46;;;;;;;16.65;6.10;;;1.60;96.10;;;;;;10132166;28;20051;-64
2022/01/26 21:24:37;;;;;;;17.23;6.50;;;1.50;95.90;;;;;;10128300;28;20047;-65
2022/01/26 21:29:27;;;;;;;14.85;6.03;;;1.40;96.00;;;;;;10107893;28;20032;-65
2022/01/26 21:34:18;;;;;;;21.20;6.22;;;1.50;96.10;;;;;;10131839;28;20036;-63
2022/01/26 21:39:09;;;;;;;18.17;5.50;;;1.40;96.10;;;;;;10126841;28;20361;-64
2022/01/26 21:44:00;;;;;;;17.92;6.90;;;1.40;96.20;;;;;;10123886;28;20037;-69
2022/01/26 21:48:52;;;;;;;16.88;5.70;;;1.50;96.00;;;;;;10127852;28;20100;-65
2022/01/26 21:53:43;;;;;;;13.68;5.55;;;1.40;96.00;;;;;;10131131;28;20060;-65
2022/01/26 21:58:33;;;;;;;14.00;4.95;;;1.40;96.20;;;;;;10122083;28;20446;-61
2022/01/26 22:03:24;;;;;;;17.48;5.97;;;1.50;96.10;;;;;;10123756;28;20041;-65
2022/01/26 22:08:16;;;;;;;13.85;6.13;;;1.40;96.10;;;;;;10118958;28;20103;-55
2022/01/26 22:13:06;;;;;;;18.90;5.90;;;1.40;96.10;;;;;;10128442;28;20029;-60
2022/01/26 22:17:57;;;;;;;20.48;5.78;;;1.50;96.00;;;;;;10108016;28;20433;-63
2022/01/26 22:22:48;;;;;;;18.50;6.60;;;1.60;96.00;;;;;;10127276;28;20047;-67
2022/01/26 22:27:42;;;;;;;15.43;6.50;;;1.60;95.90;;;;;;10121488;28;20332;-63
2022/01/26 22:32:34;;;;;;;15.80;5.95;;;1.60;96.00;;;;;;10135395;28;20025;-63
2022/01/26 22:37:26;;;;;;;17.75;6.32;;;1.60;95.90;;;;;;10139346;28;20025;-63
2022/01/26 22:42:18;;;;;;;16.77;6.70;;;1.70;95.90;;;;;;10131275;28;20093;-69
2022/01/26 22:47:08;;;;;;;18.27;6.90;;;1.70;95.80;;;;;;10133156;28;20138;-65
2022/01/26 22:51:59;;;;;;;21.75;5.13;;;1.70;95.80;;;;;;10132135;28;20364;-65
2022/01/26 22:56:50;;;;;;;18.65;6.45;;;1.80;95.90;;;;;;10124686;28;20505;-61
2022/01/26 23:06:34;;;;;;;17.20;7.72;;;1.80;95.70;;;;;;10128493;28;20086;-67
2022/01/26 23:11:38;;;;;;;24.60;7.28;;;1.70;95.60;;;;;;10132252;28;20044;-65
2022/01/26 23:16:41;;;;;;;17.63;6.85;;;1.50;95.80;;;;;;10130746;28;20033;-64
2022/01/26 23:21:31;;;;;;;15.40;6.47;;;1.40;95.80;;;;;;10131274;28;20029;-63
2022/01/26 23:26:28;;;;;;;18.55;6.63;;;1.50;95.60;;;;;;10133216;28;20122;-63
2022/01/26 23:31:42;;;;;;;30.88;10.93;;;1.40;95.80;;;;;;10127489;28;20135;-63
